Time;durP1;ratioP1;P1;durP2;ratioP2;P2;SDS_P1;SDS_P2;PMS_P1;PMS_P2;Temp;Humidity;BMP_temperature;BMP_pressure;BME280_temperature;BME280_humidity;BME280_pressure;Samples;Min_cycle;Max_cycle;Signal;HPM_P1;HPM_P2
2023/04/11 00:01:45;;;;;;;4.07;2.57;;;11.70;22.40;;;;;;5051289;28;46272;-67
2023/04/11 00:04:11;;;;;;;4.07;2.40;;;11.70;21.40;;;;;;5048987;28;46482;-67
2023/04/11 00:06:36;;;;;;;5.90;2.67;;;11.70;21.40;;;;;;5051704;28;46461;-67
2023/04/11 00:09:02;;;;;;;4.63;2.70;;;11.80;21.40;;;;;;5051231;28;45909;-67
2023/04/11 00:11:28;;;;;;;4.83;2.83;;;11.80;21.40;;;;;;5050150;28;46416;-67
2023/04/11 00:13:57;;;;;;;4.00;2.40;;;11.80;21.50;;;;;;5050132;28;47182;-67
2023/04/11 00:16:24;;;;;;;9.67;3.13;;;11.80;21.50;;;;;;5047644;28;45925;-67
2023/04/11 00:18:50;;;;;;;4.40;2.70;;;11.90;21.70;;;;;;5045373;28;46466;-66
2023/04/11 00:21:15;;;;;;;4.17;2.33;;;11.90;21.70;;;;;;5056106;28;45933;-66
2023/04/11 00:23:41;;;;;;;3.97;2.60;;;11.90;21.40;;;;;;5049947;28;47304;-68
2023/04/11 00:26:07;;;;;;;3.47;2.30;;;11.90;21.40;;;;;;5050511;28;46387;-67
2023/04/11 00:28:33;;;;;;;5.07;2.97;;;12.00;21.50;;;;;;5046161;28;46216;-67
2023/04/11 00:30:59;;;;;;;4.37;3.00;;;12.00;21.40;;;;;;5051145;28;46664;-67
2023/04/11 00:33:25;;;;;;;4.50;2.70;;;12.00;21.40;;;;;;5045747;28;46434;-68
2023/04/11 00:35:50;;;;;;;5.27;2.60;;;12.00;21.40;;;;;;5047073;28;46412;-67
2023/04/11 00:38:16;;;;;;;4.07;2.60;;;12.00;21.40;;;;;;5047293;28;46205;-67
2023/04/11 00:40:42;;;;;;;4.17;2.70;;;12.00;21.40;;;;;;5058600;28;46329;-67
2023/04/11 00:43:08;;;;;;;3.60;2.23;;;12.00;21.40;;;;;;5052206;28;46303;-67
2023/04/11 00:45:33;;;;;;;6.53;3.63;;;12.00;21.30;;;;;;5050750;28;46462;-67
2023/04/11 00:48:00;;;;;;;7.40;3.20;;;12.10;21.40;;;;;;5046109;28;46328;-68
2023/04/11 00:50:26;;;;;;;4.83;2.60;;;12.00;21.40;;;;;;5048823;28;46627;-68
2023/04/11 00:52:54;;;;;;;5.33;3.23;;;12.00;21.40;;;;;;5049371;28;47031;-68
2023/04/11 00:55:20;;;;;;;6.17;2.80;;;12.00;21.30;;;;;;5049412;28;46403;-68
2023/04/11 00:57:46;;;;;;;4.10;2.90;;;12.00;21.40;;;;;;5046722;28;46366;-67
2023/04/11 01:00:12;;;;;;;6.67;3.57;;;12.00;21.50;;;;;;5049266;28;46365;-67
2023/04/11 01:02:41;;;;;;;4.63;3.10;;;12.00;21.60;;;;;;5047287;28;46027;-67
2023/04/11 01:05:12;;;;;;;6.07;3.40;;;12.00;21.70;;;;;;5049233;28;46500;-68
2023/04/11 01:07:39;;;;;;;4.43;2.80;;;12.00;21.70;;;;;;5048149;28;46508;-68
2023/04/11 01:10:05;;;;;;;4.37;2.97;;;12.00;21.90;;;;;;5048241;28;46488;-68
2023/04/11 01:12:31;;;;;;;4.03;2.87;;;12.00;21.80;;;;;;5051081;28;46199;-68
2023/04/11 01:14:58;;;;;;;4.87;2.97;;;12.00;21.90;;;;;;5046716;28;45749;-68
2023/04/11 01:17:24;;;;;;;4.33;2.80;;;12.00;21.80;;;;;;5049321;28;46465;-68
2023/04/11 01:19:51;;;;;;;5.37;3.17;;;12.10;21.90;;;;;;5048535;28;46580;-68
2023/04/11 01:22:21;;;;;;;4.73;3.13;;;12.10;21.90;;;;;;5050643;28;46225;-67
2023/04/11 01:24:48;;;;;;;6.23;3.40;;;12.10;21.90;;;;;;5044951;28;46506;-68
2023/04/11 01:27:13;;;;;;;5.33;3.50;;;12.10;22.10;;;;;;5051094;28;46373;-67
2023/04/11 01:29:39;;;;;;;4.63;3.07;;;12.00;22.20;;;;;;5051744;28;46551;-67
2023/04/11 01:32:05;;;;;;;4.73;3.20;;;12.00;22.50;;;;;;5047965;28;46542;-68
2023/04/11 01:34:32;;;;;;;5.20;3.30;;;12.00;22.60;;;;;;5050781;28;46663;-67
2023/04/11 01:36:58;;;;;;;5.03;3.13;;;12.10;22.80;;;;;;5047811;28;46373;-67
2023/04/11 01:39:24;;;;;;;5.50;3.10;;;12.00;23.00;;;;;;5050320;28;46567;-67
2023/04/11 01:41:51;;;;;;;3.97;2.70;;;12.00;23.10;;;;;;5047814;28;46381;-67
2023/04/11 01:44:18;;;;;;;5.50;2.80;;;12.00;23.10;;;;;;5049132;28;46361;-67
2023/04/11 01:46:44;;;;;;;3.40;2.53;;;12.10;23.10;;;;;;5045269;28;46462;-67
2023/04/11 01:49:14;;;;;;;4.73;2.60;;;12.00;23.00;;;;;;5049174;28;46080;-67
2023/04/11 01:51:40;;;;;;;5.30;2.90;;;12.00;23.00;;;;;;5050842;28;46487;-67
2023/04/11 01:54:05;;;;;;;3.60;2.40;;;12.10;23.10;;;;;;5045076;28;45764;-67
2023/04/11 01:56:31;;;;;;;8.30;2.70;;;12.00;23.00;;;;;;5048565;28;46087;-67
2023/04/11 01:58:57;;;;;;;3.60;2.00;;;12.10;23.00;;;;;;5046590;28;46453;-67
2023/04/11 02:01:24;;;;;;;2.97;1.83;;;12.10;22.90;;;;;;5053132;28;46269;-68
2023/04/11 02:03:50;;;;;;;3.70;1.87;;;12.20;22.70;;;;;;5051954;28;47155;-67
2023/04/11 02:06:15;;;;;;;2.83;1.70;;;12.20;22.40;;;;;;5046362;28;46469;-67
2023/04/11 02:08:42;;;;;;;8.20;1.60;;;12.30;22.40;;;;;;5048082;28;46198;-67
2023/04/11 02:11:07;;;;;;;2.70;1.87;;;12.30;22.10;;;;;;5049956;28;47169;-68
2023/04/11 02:13:34;;;;;;;3.50;1.77;;;12.30;21.90;;;;;;5044472;28;46392;-67
2023/04/11 02:16:08;;;;;;;3.30;1.70;;;12.30;21.50;;;;;;5045903;28;45880;-68
2023/04/11 02:18:36;;;;;;;3.70;1.77;;;12.40;21.30;;;;;;5048003;28;46671;-67
2023/04/11 02:21:02;;;;;;;4.17;1.80;;;12.50;21.10;;;;;;5048372;28;46375;-67
2023/04/11 02:23:28;;;;;;;2.97;2.03;;;12.50;20.90;;;;;;5048052;28;46823;-67
2023/04/11 02:25:54;;;;;;;2.63;1.60;;;12.60;20.70;;;;;;5048075;28;46406;-67
2023/04/11 02:28:21;;;;;;;5.63;1.47;;;12.60;20.50;;;;;;5047580;28;46559;-67
2023/04/11 02:30:47;;;;;;;5.83;1.80;;;12.60;20.50;;;;;;5046068;28;47087;-67
2023/04/11 02:33:12;;;;;;;8.53;1.37;;;12.60;20.30;;;;;;5048727;28;46486;-67
2023/04/11 02:35:38;;;;;;;2.33;1.57;;;12.60;20.20;;;;;;5046333;28;46509;-67
2023/04/11 02:38:03;;;;;;;4.90;1.73;;;12.60;20.00;;;;;;5046066;28;46306;-67
2023/04/11 02:40:29;;;;;;;3.90;1.87;;;12.70;20.00;;;;;;5047324;28;46271;-67
2023/04/11 02:42:55;;;;;;;3.23;1.30;;;12.70;19.90;;;;;;5056707;28;46331;-68
2023/04/11 02:45:20;;;;;;;3.50;1.60;;;12.70;19.80;;;;;;5054404;28;46433;-67
2023/04/11 02:47:46;;;;;;;2.77;1.53;;;12.70;19.50;;;;;;5049347;28;46442;-67
2023/04/11 02:50:11;;;;;;;5.40;1.70;;;12.80;19.40;;;;;;5048172;28;47250;-67
2023/04/11 02:52:40;;;;;;;7.50;1.87;;;12.80;19.20;;;;;;5046259;28;46402;-67
2023/04/11 02:55:07;;;;;;;3.07;1.63;;;12.80;19.10;;;;;;5047036;28;46586;-67
2023/04/11 02:57:32;;;;;;;3.00;1.50;;;12.80;19.00;;;;;;5045854;28;46366;-66
2023/04/11 02:59:58;;;;;;;3.50;1.53;;;12.80;19.00;;;;;;5050379;28;46654;-66
2023/04/11 03:02:24;;;;;;;4.37;1.63;;;12.80;19.00;;;;;;5047860;28;46424;-67
2023/04/11 03:04:50;;;;;;;3.80;1.40;;;12.80;18.90;;;;;;5049845;28;46413;-67
2023/04/11 03:07:15;;;;;;;2.70;1.40;;;12.80;19.00;;;;;;5044830;28;46367;-67
2023/04/11 03:09:41;;;;;;;2.50;1.50;;;12.70;18.90;;;;;;5049741;28;46291;-67
2023/04/11 03:12:06;;;;;;;2.90;1.60;;;12.80;18.90;;;;;;5046682;28;46270;-68
2023/04/11 03:14:32;;;;;;;5.03;1.70;;;12.80;18.80;;;;;;5046940;28;46680;-67
2023/04/11 03:16:58;;;;;;;3.43;1.40;;;12.80;18.80;;;;;;5045035;28;46278;-67
2023/04/11 03:19:23;;;;;;;3.40;1.60;;;12.80;18.90;;;;;;5047920;28;47222;-67
2023/04/11 03:21:49;;;;;;;2.50;1.60;;;12.70;18.80;;;;;;5047723;28;46374;-67
2023/04/11 03:24:14;;;;;;;5.20;1.57;;;12.60;18.90;;;;;;5048835;28;46452;-67
2023/04/11 03:26:40;;;;;;;4.17;1.80;;;12.60;19.00;;;;;;5052013;28;46219;-67
2023/04/11 03:29:06;;;;;;;3.10;1.57;;;12.60;19.00;;;;;;5050168;28;47102;-67
2023/04/11 03:31:31;;;;;;;5.03;1.30;;;12.50;19.10;;;;;;5048163;28;46442;-67
2023/04/11 03:33:58;;;;;;;5.23;1.60;;;12.50;19.10;;;;;;5048070;28;46367;-68
2023/04/11 03:36:25;;;;;;;3.60;1.67;;;12.40;19.00;;;;;;5050380;28;46583;-67
2023/04/11 03:38:51;;;;;;;3.30;1.30;;;12.50;19.10;;;;;;5052977;28;45912;-67
2023/04/11 03:41:18;;;;;;;3.70;1.50;;;12.50;19.00;;;;;;5048932;28;46710;-67
2023/04/11 03:43:44;;;;;;;8.80;1.40;;;12.50;18.90;;;;;;5049496;28;46497;-67
2023/04/11 03:46:10;;;;;;;5.20;1.70;;;12.50;18.90;;;;;;5045169;28;46459;-67
2023/04/11 03:48:36;;;;;;;5.70;1.30;;;12.40;18.90;;;;;;5047474;28;46417;-68
2023/04/11 03:51:02;;;;;;;3.77;1.37;;;12.50;18.80;;;;;;5051423;28;46680;-68
2023/04/11 03:53:28;;;;;;;6.33;1.87;;;12.50;18.80;;;;;;5050371;28;46410;-68
2023/04/11 03:55:54;;;;;;;3.47;1.30;;;12.40;18.80;;;;;;5054442;28;46380;-68
2023/04/11 03:58:20;;;;;;;4.20;1.73;;;12.40;18.70;;;;;;5048607;28;47003;-67
2023/04/11 04:00:46;;;;;;;3.83;1.27;;;12.40;18.70;;;;;;5048654;28;46481;-67
2023/04/11 04:03:12;;;;;;;4.27;1.53;;;12.50;18.50;;;;;;5048298;28;46312;-67
2023/04/11 04:05:39;;;;;;;3.60;1.70;;;12.60;18.50;;;;;;5047969;28;46422;-67
2023/04/11 04:08:05;;;;;;;2.60;1.30;;;12.60;18.30;;;;;;5050029;28;46375;-67
2023/04/11 04:10:30;;;;;;;2.47;1.63;;;12.70;18.20;;;;;;5047869;28;46436;-67
2023/04/11 04:12:56;;;;;;;2.40;1.10;;;12.70;18.10;;;;;;5048503;28;46671;-67
2023/04/11 04:15:21;;;;;;;3.67;1.53;;;12.70;18.30;;;;;;5047762;28;46476;-68
2023/04/11 04:17:47;;;;;;;4.13;1.70;;;12.60;18.70;;;;;;5052105;28;46411;-67
2023/04/11 04:20:13;;;;;;;3.63;1.40;;;12.60;19.10;;;;;;5051241;28;46424;-67
2023/04/11 04:22:38;;;;;;;5.07;1.57;;;12.50;19.50;;;;;;5048744;28;46435;-67
2023/04/11 04:25:05;;;;;;;6.17;1.83;;;12.40;19.80;;;;;;5049474;28;46382;-67
2023/04/11 04:27:31;;;;;;;3.63;1.87;;;12.40;20.00;;;;;;5049083;28;46243;-67
2023/04/11 04:29:57;;;;;;;2.77;1.50;;;12.40;20.20;;;;;;5049413;28;46381;-66
2023/04/11 04:32:23;;;;;;;6.77;1.90;;;12.40;20.40;;;;;;5049627;28;45886;-68
2023/04/11 04:34:53;;;;;;;4.17;1.70;;;12.40;20.50;;;;;;5050053;28;46618;-67
2023/04/11 04:37:21;;;;;;;3.30;1.43;;;12.40;20.60;;;;;;5052228;28;47208;-68
2023/04/11 04:39:55;;;;;;;2.80;1.70;;;12.40;20.70;;;;;;5045933;28;46373;-67
2023/04/11 04:42:25;;;;;;;5.03;1.60;;;12.40;20.90;;;;;;5053278;28;46323;-67
2023/04/11 04:44:52;;;;;;;3.20;2.00;;;12.40;20.90;;;;;;5057412;28;45823;-67
2023/04/11 04:47:18;;;;;;;4.27;1.70;;;12.40;21.00;;;;;;5050062;28;48453;-67
2023/04/11 04:49:45;;;;;;;5.30;1.90;;;12.40;21.10;;;;;;5053055;28;46433;-67
2023/04/11 04:52:12;;;;;;;3.00;1.80;;;12.40;21.40;;;;;;5049550;28;45846;-67
2023/04/11 04:54:38;;;;;;;3.13;2.07;;;12.30;21.60;;;;;;5051525;28;46427;-67
2023/04/11 04:57:05;;;;;;;2.83;1.67;;;12.30;21.90;;;;;;5050046;28;46367;-67
2023/04/11 04:59:30;;;;;;;4.53;1.90;;;12.30;22.20;;;;;;5046358;28;46453;-67
2023/04/11 05:01:56;;;;;;;7.43;1.70;;;12.20;22.40;;;;;;5050101;28;46363;-67
2023/04/11 05:04:22;;;;;;;3.80;2.00;;;12.10;22.90;;;;;;5049181;28;46539;-67
2023/04/11 05:06:47;;;;;;;4.27;1.73;;;12.00;23.50;;;;;;5052770;28;47113;-67
2023/04/11 05:09:13;;;;;;;8.37;1.87;;;12.00;24.10;;;;;;5048519;28;46531;-67
2023/04/11 05:11:39;;;;;;;5.00;2.10;;;11.90;24.40;;;;;;5048150;28;46361;-67
2023/04/11 05:14:05;;;;;;;3.40;1.60;;;11.90;24.60;;;;;;5048754;28;45790;-67
2023/04/11 05:16:31;;;;;;;3.93;1.90;;;11.90;24.80;;;;;;5049597;28;46975;-67
2023/04/11 05:18:56;;;;;;;3.20;1.70;;;11.90;24.90;;;;;;5046088;28;46385;-67
2023/04/11 05:21:22;;;;;;;6.53;2.33;;;12.00;25.10;;;;;;5044660;28;46443;-67
2023/04/11 05:23:48;;;;;;;5.10;2.77;;;11.90;25.20;;;;;;5049922;28;46492;-67
2023/04/11 05:26:13;;;;;;;3.83;2.23;;;12.00;25.50;;;;;;5048693;28;46500;-67
2023/04/11 05:28:40;;;;;;;3.90;1.90;;;11.90;26.50;;;;;;5048184;28;46432;-67
2023/04/11 05:31:10;;;;;;;3.00;1.80;;;11.80;28.30;;;;;;5050079;28;46415;-67
2023/04/11 05:33:37;;;;;;;2.97;1.80;;;11.60;31.60;;;;;;5047573;28;46299;-67
2023/04/11 05:36:04;;;;;;;12.97;2.23;;;11.40;34.70;;;;;;5051148;28;46375;-67
2023/04/11 05:38:32;;;;;;;3.73;2.30;;;11.20;37.10;;;;;;5043938;28;46525;-67
2023/04/11 05:40:58;;;;;;;5.03;2.20;;;11.10;37.70;;;;;;5047380;28;46366;-67
2023/04/11 05:43:24;;;;;;;5.60;2.03;;;11.10;38.90;;;;;;5049155;28;46621;-67
2023/04/11 05:45:50;;;;;;;4.67;2.20;;;11.00;40.30;;;;;;5052211;28;46490;-67
2023/04/11 05:48:18;;;;;;;4.40;2.40;;;10.90;42.20;;;;;;5047596;28;45824;-67
2023/04/11 05:50:48;;;;;;;3.53;2.00;;;10.90;42.30;;;;;;5050903;28;46456;-68
2023/04/11 05:53:13;;;;;;;3.67;1.90;;;10.90;43.10;;;;;;5055771;28;46641;-68
2023/04/11 05:55:39;;;;;;;4.93;1.53;;;11.00;41.70;;;;;;5049518;28;46314;-68
2023/04/11 05:58:05;;;;;;;4.43;1.50;;;11.00;43.30;;;;;;5048100;28;46294;-68
2023/04/11 06:00:31;;;;;;;3.93;1.40;;;10.90;44.20;;;;;;5044958;28;46508;-68
2023/04/11 06:03:00;;;;;;;2.40;1.40;;;10.90;44.90;;;;;;5048784;28;46396;-69
2023/04/11 06:05:30;;;;;;;3.67;1.60;;;10.80;45.30;;;;;;5049643;28;47054;-68
2023/04/11 06:07:57;;;;;;;5.03;1.60;;;10.80;46.60;;;;;;5051948;28;46302;-68
2023/04/11 06:10:22;;;;;;;2.63;1.57;;;10.70;48.10;;;;;;5048704;28;46397;-68
2023/04/11 06:12:48;;;;;;;4.30;1.60;;;10.70;47.50;;;;;;5048495;28;46617;-68
2023/04/11 06:15:14;;;;;;;3.20;1.20;;;10.70;47.70;;;;;;5047856;28;46520;-68
2023/04/11 06:17:39;;;;;;;9.40;1.37;;;10.70;48.00;;;;;;5048190;28;46476;-68
2023/04/11 06:20:07;;;;;;;2.40;1.30;;;10.80;47.00;;;;;;5048073;28;46397;-68
2023/04/11 06:22:33;;;;;;;2.50;1.50;;;10.80;45.90;;;;;;5047262;28;46478;-68
2023/04/11 06:24:58;;;;;;;4.10;1.50;;;10.90;45.50;;;;;;5044735;28;45940;-68
2023/04/11 06:27:25;;;;;;;4.50;1.70;;;10.90;45.00;;;;;;5047820;28;46301;-68
2023/04/11 06:29:50;;;;;;;3.03;1.73;;;11.00;44.20;;;;;;5051468;28;46274;-66
2023/04/11 06:32:16;;;;;;;5.60;1.97;;;11.00;44.20;;;;;;5046030;28;46624;-68
2023/04/11 06:34:42;;;;;;;3.50;1.90;;;11.00;44.90;;;;;;5045859;28;46448;-67
2023/04/11 06:37:08;;;;;;;2.53;1.00;;;11.10;44.30;;;;;;5048492;28;45999;-64
2023/04/11 06:39:34;;;;;;;4.70;1.10;;;11.00;44.90;;;;;;5051154;28;46535;-67
2023/04/11 06:42:01;;;;;;;1.90;0.90;;;10.90;45.60;;;;;;5053034;28;46508;-66
2023/04/11 06:44:27;;;;;;;5.30;1.17;;;10.60;46.80;;;;;;5046201;28;46436;-66
2023/04/11 06:46:53;;;;;;;4.50;1.00;;;10.50;47.90;;;;;;5048135;28;46472;-64
2023/04/11 06:49:18;;;;;;;1.60;0.87;;;10.40;50.00;;;;;;5049434;28;46476;-66
2023/04/11 06:51:50;;;;;;;2.80;1.07;;;10.30;51.50;;;;;;5049821;28;45904;-66
2023/04/11 06:54:17;;;;;;;2.30;1.10;;;10.20;52.70;;;;;;5044350;28;46858;-66
2023/04/11 06:56:43;;;;;;;2.37;1.07;;;10.30;52.60;;;;;;5046907;28;46515;-66
2023/04/11 06:59:09;;;;;;;3.33;0.93;;;10.30;53.00;;;;;;5047542;28;46884;-66
2023/04/11 07:01:38;;;;;;;1.60;0.90;;;10.30;52.70;;;;;;5049701;28;46525;-66
2023/04/11 07:04:04;;;;;;;2.73;1.00;;;10.10;56.60;;;;;;5052483;28;47099;-66
2023/04/11 07:06:30;;;;;;;6.30;1.33;;;10.00;62.20;;;;;;5054767;28;46401;-67
2023/04/11 07:08:57;;;;;;;4.20;1.13;;;10.00;62.50;;;;;;5053464;28;46490;-67
2023/04/11 07:11:22;;;;;;;3.20;1.03;;;10.00;62.20;;;;;;5059133;28;46529;-69
2023/04/11 07:13:51;;;;;;;2.10;1.10;;;10.00;61.30;;;;;;5057014;28;46536;-68
2023/04/11 07:16:17;;;;;;;2.80;1.03;;;10.00;60.90;;;;;;5056515;28;46266;-68
2023/04/11 07:18:43;;;;;;;2.87;1.30;;;10.10;59.80;;;;;;5064167;28;46434;-67
2023/04/11 07:21:12;;;;;;;1.40;0.80;;;10.20;59.30;;;;;;5053041;28;46279;-66
2023/04/11 07:23:38;;;;;;;2.00;0.90;;;10.10;59.00;;;;;;5055489;28;46473;-66
2023/04/11 07:26:04;;;;;;;1.80;1.00;;;10.00;58.90;;;;;;5057102;28;45804;-67
2023/04/11 07:28:32;;;;;;;2.80;0.80;;;10.00;59.00;;;;;;5057841;28;46192;-66
2023/04/11 07:30:58;;;;;;;1.67;0.70;;;10.00;58.80;;;;;;5054943;28;46624;-67
2023/04/11 07:33:24;;;;;;;1.50;0.70;;;9.90;59.00;;;;;;5060036;28;46396;-66
2023/04/11 07:35:49;;;;;;;2.33;0.80;;;9.90;58.70;;;;;;5056890;28;45850;-68
2023/04/11 07:38:25;;;;;;;1.50;0.80;;;9.80;58.30;;;;;;5055563;28;45788;-67
2023/04/11 07:40:52;;;;;;;1.30;0.70;;;9.70;57.70;;;;;;5056855;28;45951;-67
2023/04/11 07:43:17;;;;;;;1.60;0.80;;;9.60;56.70;;;;;;5060338;28;46420;-69
2023/04/11 07:45:43;;;;;;;1.20;0.60;;;9.50;55.90;;;;;;5049150;28;46344;-68
2023/04/11 07:48:08;;;;;;;2.43;1.07;;;9.50;55.10;;;;;;5051328;28;46349;-67
2023/04/11 07:50:34;;;;;;;2.53;0.73;;;9.60;54.30;;;;;;5047225;28;46473;-68
2023/04/11 07:53:01;;;;;;;2.07;1.00;;;9.80;52.70;;;;;;5048746;28;46479;-66
2023/04/11 07:55:26;;;;;;;2.80;0.77;;;10.00;52.10;;;;;;5054338;28;46461;-67
2023/04/11 07:57:52;;;;;;;4.10;1.00;;;9.90;51.50;;;;;;5054490;28;46395;-67
2023/04/11 08:00:21;;;;;;;1.80;0.77;;;9.90;51.20;;;;;;5052613;28;46450;-66
2023/04/11 08:02:46;;;;;;;1.87;0.97;;;9.90;51.10;;;;;;5050999;28;46876;-67
2023/04/11 08:05:12;;;;;;;2.07;0.70;;;10.00;49.80;;;;;;5049590;28;45936;-67
2023/04/11 08:07:37;;;;;;;2.47;0.80;;;10.00;49.10;;;;;;5053496;28;46555;-67
2023/04/11 08:10:04;;;;;;;4.60;0.80;;;10.10;49.00;;;;;;5051069;28;46437;-67
2023/04/11 08:12:30;;;;;;;1.77;0.90;;;10.30;48.50;;;;;;5052009;28;46354;-70
2023/04/11 08:14:55;;;;;;;1.80;0.93;;;10.50;48.00;;;;;;5053817;28;46410;-66
2023/04/11 08:17:24;;;;;;;2.17;1.00;;;10.60;47.60;;;;;;5049402;28;46420;-66
2023/04/11 08:19:50;;;;;;;1.70;0.80;;;10.60;47.40;;;;;;5051609;28;46500;-66
2023/04/11 08:22:16;;;;;;;2.63;1.00;;;10.50;48.00;;;;;;5050777;28;46315;-66
2023/04/11 08:24:42;;;;;;;2.20;0.80;;;10.40;48.40;;;;;;5048704;28;46436;-66
2023/04/11 08:27:08;;;;;;;1.30;0.60;;;10.40;48.50;;;;;;5046765;28;46528;-66
2023/04/11 08:29:33;;;;;;;2.70;1.13;;;10.30;48.70;;;;;;5047005;28;46433;-66
2023/04/11 08:31:59;;;;;;;1.70;0.73;;;10.20;47.60;;;;;;5047512;28;46398;-66
2023/04/11 08:34:25;;;;;;;3.80;0.87;;;10.00;46.70;;;;;;5050770;28;46172;-67
2023/04/11 08:36:50;;;;;;;1.60;0.80;;;9.90;46.70;;;;;;5049566;28;46362;-67
2023/04/11 08:39:16;;;;;;;2.90;1.17;;;9.90;47.70;;;;;;5047617;28;46582;-66
2023/04/11 08:41:42;;;;;;;2.27;1.10;;;9.80;45.90;;;;;;5048784;28;48313;-66
2023/04/11 08:44:11;;;;;;;3.27;1.30;;;9.90;45.10;;;;;;5051209;28;46398;-66
2023/04/11 08:46:41;;;;;;;2.93;1.03;;;10.10;43.40;;;;;;5051657;28;46540;-67
2023/04/11 08:49:06;;;;;;;2.03;0.97;;;10.40;42.30;;;;;;5046862;28;46719;-65
2023/04/11 08:51:32;;;;;;;3.83;0.90;;;10.60;42.70;;;;;;5046707;28;46283;-64
2023/04/11 08:54:04;;;;;;;1.83;0.80;;;10.70;40.90;;;;;;5048807;28;46424;-65
2023/04/11 08:56:30;;;;;;;2.00;0.80;;;10.90;40.20;;;;;;5048764;28;46447;-64
2023/04/11 08:58:55;;;;;;;2.93;1.10;;;11.00;39.30;;;;;;5048378;28;46416;-66
2023/04/11 09:01:26;;;;;;;2.67;1.00;;;11.20;39.50;;;;;;5044951;28;46326;-69
2023/04/11 09:03:52;;;;;;;4.23;1.30;;;11.40;39.70;;;;;;5050214;28;46554;-68
2023/04/11 09:06:17;;;;;;;5.63;0.90;;;11.20;37.50;;;;;;5051282;28;46458;-65
2023/04/11 09:08:43;;;;;;;3.37;1.00;;;11.30;37.50;;;;;;5048138;28;46590;-66
2023/04/11 09:11:08;;;;;;;3.83;0.97;;;11.50;37.70;;;;;;5046646;28;46894;-67
2023/04/11 09:13:34;;;;;;;3.43;1.00;;;11.50;37.80;;;;;;5047555;28;46795;-68
2023/04/11 09:16:08;;;;;;;3.63;1.33;;;11.40;35.40;;;;;;5044345;28;46345;-69
2023/04/11 09:18:36;;;;;;;2.53;1.00;;;11.50;36.30;;;;;;5051567;28;46496;-68
2023/04/11 09:21:04;;;;;;;4.47;1.10;;;11.50;35.50;;;;;;5053243;28;47756;-69
2023/04/11 09:23:30;;;;;;;3.03;1.10;;;11.50;34.50;;;;;;5046032;28;45859;-68
2023/04/11 09:25:56;;;;;;;3.73;1.37;;;11.60;34.70;;;;;;5047834;28;46746;-68
2023/04/11 09:28:22;;;;;;;1.93;0.80;;;11.70;34.40;;;;;;5052895;28;45847;-66
2023/04/11 09:30:52;;;;;;;2.43;1.10;;;11.70;34.40;;;;;;5043557;28;47052;-66
2023/04/11 09:33:21;;;;;;;3.47;1.13;;;11.50;34.00;;;;;;5047203;28;46302;-67
2023/04/11 09:35:48;;;;;;;5.67;1.30;;;11.40;34.60;;;;;;5049513;28;46506;-68
2023/04/11 09:38:25;;;;;;;1.93;0.93;;;11.30;34.30;;;;;;5048189;28;46806;-67
2023/04/11 09:40:51;;;;;;;3.00;0.97;;;11.40;34.70;;;;;;5048392;28;47244;-65
2023/04/11 09:43:17;;;;;;;2.13;0.90;;;11.30;35.50;;;;;;5057824;28;45754;-67
2023/04/11 09:45:43;;;;;;;3.30;1.00;;;11.10;35.80;;;;;;5052302;28;46444;-66
2023/04/11 09:48:09;;;;;;;7.23;1.30;;;10.90;35.30;;;;;;5050475;28;46554;-67
2023/04/11 09:50:37;;;;;;;3.23;1.10;;;11.00;33.30;;;;;;5046781;28;46676;-66
2023/04/11 09:53:04;;;;;;;2.60;1.10;;;10.90;30.90;;;;;;5049612;28;46413;-64
2023/04/11 09:55:32;;;;;;;6.03;1.30;;;10.80;31.20;;;;;;5047956;28;46581;-66
2023/04/11 09:57:58;;;;;;;3.10;1.13;;;10.70;30.50;;;;;;5053757;28;46605;-65
2023/04/11 10:00:29;;;;;;;3.93;0.93;;;10.50;29.80;;;;;;5045493;28;46571;-66
2023/04/11 10:02:55;;;;;;;2.63;0.87;;;10.40;30.20;;;;;;5049190;28;45930;-66
2023/04/11 10:05:30;;;;;;;3.80;1.23;;;10.40;29.90;;;;;;5045352;28;46556;-66
2023/04/11 10:08:11;;;;;;;4.73;1.07;;;10.60;30.10;;;;;;5049261;28;46384;-66
2023/04/11 10:10:37;;;;;;;5.77;1.33;;;10.70;29.60;;;;;;5048248;28;47138;-65
2023/04/11 10:13:41;;;;;;;4.60;1.43;;;11.00;30.80;;;;;;5049943;28;46501;-65
2023/04/11 10:16:13;;;;;;;4.80;1.30;;;11.70;28.30;;;;;;5048866;28;46412;-65
2023/04/11 10:18:53;;;;;;;3.33;1.10;;;11.70;28.20;;;;;;5048233;28;46672;-66
2023/04/11 10:21:28;;;;;;;3.63;0.97;;;11.80;28.00;;;;;;5044203;28;46379;-64
2023/04/11 10:24:13;;;;;;;3.00;1.23;;;11.90;27.40;;;;;;5047928;28;46401;-65
2023/04/11 10:27:00;;;;;;;3.80;1.00;;;11.90;27.40;;;;;;5048765;28;46436;-65
2023/04/11 10:30:01;;;;;;;3.47;1.37;;;11.60;28.30;;;;;;5047337;28;46692;-65
2023/04/11 10:32:23;;;;;;;5.27;1.27;;;11.60;28.70;;;;;;5047737;28;46859;-65
2023/04/11 10:34:49;;;;;;;2.43;1.03;;;11.90;28.00;;;;;;5049484;28;46759;-66
2023/04/11 10:37:16;;;;;;;5.57;1.37;;;11.80;27.80;;;;;;5054504;28;46437;-65
2023/04/11 10:40:08;;;;;;;3.83;1.10;;;11.60;28.50;;;;;;5053182;28;46414;-66
2023/04/11 10:42:38;;;;;;;3.77;1.27;;;11.50;27.70;;;;;;5051823;28;46410;-65
2023/04/11 10:45:17;;;;;;;6.43;1.43;;;11.30;28.60;;;;;;5049313;28;46484;-65
2023/04/11 10:48:06;;;;;;;5.70;1.30;;;11.30;28.50;;;;;;5056209;28;45847;-65
2023/04/11 10:50:36;;;;;;;5.33;1.47;;;11.50;28.60;;;;;;5051993;28;46532;-66
2023/04/11 10:53:05;;;;;;;4.87;1.37;;;11.50;28.90;;;;;;5049849;28;46740;-66
2023/04/11 10:55:45;;;;;;;3.77;1.20;;;11.30;28.50;;;;;;5051657;28;46341;-65
2023/04/11 10:58:15;;;;;;;3.40;1.00;;;11.20;29.00;;;;;;5048503;28;46380;-64
2023/04/11 11:00:49;;;;;;;5.17;1.40;;;11.20;28.20;;;;;;5052808;28;46615;-65
2023/04/11 11:03:16;;;;;;;6.40;1.70;;;11.10;28.40;;;;;;5055224;28;48116;-65
2023/04/11 11:05:42;;;;;;;4.60;1.30;;;11.10;28.70;;;;;;5050886;28;46472;-65
2023/04/11 11:08:08;;;;;;;4.47;1.57;;;11.10;29.90;;;;;;5051221;28;46460;-65
2023/04/11 11:10:46;;;;;;;6.73;1.50;;;11.10;29.20;;;;;;5050010;28;46441;-65
2023/04/11 11:13:14;;;;;;;5.50;1.30;;;11.30;28.60;;;;;;5048692;28;47123;-64
2023/04/11 11:15:47;;;;;;;4.60;1.10;;;11.40;27.80;;;;;;5048259;28;46397;-65
2023/04/11 11:18:14;;;;;;;5.00;1.83;;;11.30;28.50;;;;;;5049232;28;46443;-65
2023/04/11 11:20:40;;;;;;;8.40;1.50;;;11.20;29.00;;;;;;5050250;28;46467;-65
2023/04/11 11:23:08;;;;;;;4.30;1.20;;;11.30;28.10;;;;;;5052490;28;46372;-64
2023/04/11 11:25:34;;;;;;;4.63;1.53;;;11.40;27.70;;;;;;5050200;28;46440;-65
2023/04/11 11:28:01;;;;;;;4.27;1.30;;;11.50;27.20;;;;;;5051451;28;45886;-66
2023/04/11 11:30:27;;;;;;;6.30;1.70;;;11.60;27.20;;;;;;5050930;28;46628;-66
2023/04/11 11:32:55;;;;;;;7.43;1.50;;;11.80;27.40;;;;;;5047568;28;46178;-65
2023/04/11 11:35:21;;;;;;;4.47;1.40;;;12.00;27.50;;;;;;5049653;28;46417;-65
2023/04/11 11:37:48;;;;;;;6.23;1.60;;;12.40;26.80;;;;;;5050774;28;46504;-65
2023/04/11 11:40:14;;;;;;;5.57;1.57;;;12.40;25.90;;;;;;5050950;28;46584;-66
2023/04/11 11:42:40;;;;;;;5.40;1.40;;;12.40;25.40;;;;;;5051161;28;47910;-65
2023/04/11 11:45:19;;;;;;;7.60;1.60;;;12.00;25.10;;;;;;5050804;28;45798;-65
2023/04/11 11:47:47;;;;;;;5.77;1.30;;;11.90;25.60;;;;;;5052000;28;46436;-65
2023/04/11 11:50:27;;;;;;;3.73;1.50;;;11.70;25.30;;;;;;5054477;28;46376;-65
2023/04/11 11:52:53;;;;;;;8.20;1.73;;;11.70;25.40;;;;;;5050653;28;46629;-65
2023/04/11 11:55:21;;;;;;;7.13;1.83;;;11.90;25.40;;;;;;5050801;28;46377;-66
2023/04/11 11:57:48;;;;;;;4.97;1.50;;;12.00;25.30;;;;;;5050451;28;45822;-66
2023/04/11 12:00:15;;;;;;;7.77;1.87;;;12.30;25.10;;;;;;5057038;28;45824;-65
2023/04/11 12:02:41;;;;;;;11.43;1.60;;;12.50;24.50;;;;;;5045847;28;46976;-64
2023/04/11 12:05:10;;;;;;;3.60;1.30;;;12.50;24.80;;;;;;5050944;28;46380;-65
2023/04/11 12:07:37;;;;;;;4.30;1.50;;;12.60;24.90;;;;;;5049488;28;46457;-65
2023/04/11 12:10:07;;;;;;;5.50;1.67;;;12.90;24.40;;;;;;5051071;28;46456;-65
2023/04/11 12:12:34;;;;;;;4.47;1.53;;;12.90;24.70;;;;;;5052085;28;47253;-65
2023/04/11 12:15:02;;;;;;;5.20;1.60;;;12.70;25.50;;;;;;5052142;28;46450;-65
2023/04/11 12:17:34;;;;;;;6.33;1.63;;;12.80;25.50;;;;;;5053589;28;45839;-66
2023/04/11 12:20:01;;;;;;;8.13;1.23;;;12.70;25.20;;;;;;5050288;28;46437;-65
2023/04/11 12:22:26;;;;;;;4.93;1.70;;;12.40;24.60;;;;;;5051647;28;47213;-66
2023/04/11 12:25:02;;;;;;;3.73;1.20;;;12.20;25.30;;;;;;5047655;28;46370;-65
2023/04/11 12:27:27;;;;;;;4.20;1.60;;;12.20;25.00;;;;;;5051588;28;46532;-65
2023/04/11 12:29:53;;;;;;;5.37;1.20;;;12.30;23.70;;;;;;5048816;28;46166;-66
2023/04/11 12:32:18;;;;;;;12.30;1.50;;;12.30;24.20;;;;;;5051112;28;46459;-65
2023/04/11 12:34:44;;;;;;;8.27;1.40;;;12.40;24.30;;;;;;5046912;28;46782;-66
2023/04/11 12:37:09;;;;;;;4.10;1.47;;;12.30;23.70;;;;;;5051396;28;46396;-65
2023/04/11 12:39:36;;;;;;;5.67;1.50;;;12.40;24.10;;;;;;5050037;28;46442;-65
2023/04/11 12:42:02;;;;;;;4.93;1.30;;;12.50;23.70;;;;;;5049701;28;46365;-65
2023/04/11 12:44:27;;;;;;;3.40;1.27;;;12.70;24.20;;;;;;5049023;28;46303;-65
2023/04/11 12:46:53;;;;;;;6.67;1.33;;;12.90;23.90;;;;;;5053387;28;46598;-65
2023/04/11 12:49:18;;;;;;;5.43;1.40;;;13.40;24.30;;;;;;5049577;28;46658;-65